Time;durP1;ratioP1;P1;durP2;ratioP2;P2;SDS_P1;SDS_P2;PMS_P1;PMS_P2;Temp;Humidity;BMP_temperature;BMP_pressure;BME280_temperature;BME280_humidity;BME280_pressure;Samples;Min_cycle;Max_cycle;Signal;HPM_P1;HPM_P2
2023/10/10 00:01:24;;;;;;;12.30;4.60;;;;;;;4.85;92.44;100148.34;109549;1251;67761;-65
2023/10/10 00:04:11;;;;;;;11.40;4.70;;;;;;;4.80;92.33;100150.13;109587;1251;72372;-66
2023/10/10 00:06:57;;;;;;;12.80;4.90;;;;;;;4.79;92.53;100145.82;109438;1251;60400;-66
2023/10/10 00:09:45;;;;;;;10.60;4.70;;;;;;;4.76;92.78;100143.11;109446;1251;60283;-65
2023/10/10 00:12:35;;;;;;;11.10;4.30;;;;;;;4.76;92.75;100139.98;109546;1251;72793;-64
2023/10/10 00:15:32;;;;;;;11.50;5.20;;;;;;;4.74;93.08;100138.67;109551;1251;67733;-62
2023/10/10 00:18:21;;;;;;;12.70;5.60;;;;;;;4.74;93.53;100139.20;109498;1251;73550;-65
2023/10/10 00:21:09;;;;;;;11.50;5.70;;;;;;;4.73;93.28;100134.67;109580;1251;57846;-65
2023/10/10 00:23:55;;;;;;;12.70;5.40;;;;;;;4.73;93.23;100135.93;109530;1251;60170;-65
2023/10/10 00:26:42;;;;;;;12.40;5.50;;;;;;;4.69;93.34;100126.84;109595;1251;72160;-63
2023/10/10 00:29:29;;;;;;;10.40;5.00;;;;;;;4.64;93.38;100133.39;109586;1251;67883;-65
2023/10/10 00:32:22;;;;;;;11.60;5.10;;;;;;;4.62;93.71;100137.05;109531;1251;72472;-66
2023/10/10 00:35:09;;;;;;;11.40;4.60;;;;;;;4.60;93.54;100135.92;109443;1251;58100;-65
2023/10/10 00:37:58;;;;;;;11.50;5.10;;;;;;;4.58;93.75;100137.77;109669;1251;60138;-65
2023/10/10 00:40:47;;;;;;;10.10;4.50;;;;;;;4.57;94.04;100137.98;109534;1251;73635;-65
2023/10/10 00:43:33;;;;;;;11.10;4.50;;;;;;;4.57;94.51;100134.98;109515;1253;67895;-64
2023/10/10 00:46:24;;;;;;;11.20;4.30;;;;;;;4.57;94.24;100134.81;109617;1251;71256;-66
2023/10/10 00:49:13;;;;;;;12.30;5.30;;;;;;;4.56;94.63;100135.05;109503;1251;57278;-67
2023/10/10 00:52:06;;;;;;;14.10;6.20;;;;;;;4.54;94.75;100137.41;109632;1251;59139;-66
2023/10/10 00:54:52;;;;;;;16.60;6.90;;;;;;;4.53;94.60;100134.70;109418;1254;72963;-65
2023/10/10 00:57:40;;;;;;;17.60;6.80;;;;;;;4.52;94.73;100132.96;109618;1251;67752;-64
2023/10/10 01:00:30;;;;;;;17.40;7.10;;;;;;;4.51;94.91;100136.34;109477;1254;72464;-65
2023/10/10 01:03:20;;;;;;;16.60;6.20;;;;;;;4.51;94.85;100135.81;109401;1251;59956;-65
2023/10/10 01:06:14;;;;;;;11.20;5.30;;;;;;;4.53;95.13;100137.33;109519;1251;60277;-65
2023/10/10 01:09:20;;;;;;;12.60;4.60;;;;;;;4.54;95.11;100137.07;109443;1253;72982;-67
2023/10/10 01:12:07;;;;;;;11.20;4.90;;;;;;;4.55;95.22;100139.85;109419;1253;67646;-65
2023/10/10 01:14:57;;;;;;;10.60;3.90;;;;;;;4.55;95.65;100137.40;109499;1252;73577;-66
2023/10/10 01:17:44;;;;;;;10.80;4.20;;;;;;;4.53;95.10;100142.77;109446;1253;59567;-66
2023/10/10 01:20:34;;;;;;;8.70;3.60;;;;;;;4.52;95.59;100146.14;109557;1251;60382;-65
2023/10/10 01:23:26;;;;;;;10.20;4.00;;;;;;;4.51;96.09;100144.23;109437;1251;71579;-64
2023/10/10 01:26:13;;;;;;;10.80;3.50;;;;;;;4.52;96.55;100142.30;109468;1253;66752;-65
2023/10/10 01:29:12;;;;;;;8.90;3.60;;;;;;;4.52;96.24;100142.45;109594;1251;71895;-68
2023/10/10 01:31:58;;;;;;;9.10;3.70;;;;;;;4.52;96.11;100147.36;109573;1251;58219;-65
2023/10/10 01:34:46;;;;;;;8.80;3.60;;;;;;;4.53;96.64;100147.31;109664;1251;60392;-66
2023/10/10 01:37:40;;;;;;;10.40;3.80;;;;;;;4.53;96.15;100147.13;109420;1251;74137;-64
2023/10/10 01:40:28;;;;;;;9.70;3.70;;;;;;;4.52;96.03;100149.66;109529;1251;67770;-66
2023/10/10 01:43:17;;;;;;;11.50;3.80;;;;;;;4.51;96.04;100147.92;109466;1253;72488;-65
2023/10/10 01:46:15;;;;;;;9.90;4.20;;;;;;;4.51;96.22;100151.65;109512;1252;59981;-66
2023/10/10 01:49:02;;;;;;;11.00;3.80;;;;;;;4.50;96.19;100149.60;109415;1253;61107;-64
2023/10/10 01:51:58;;;;;;;9.70;3.70;;;;;;;4.51;96.37;100141.29;109445;1253;72998;-64
2023/10/10 01:54:46;;;;;;;9.90;3.60;;;;;;;4.52;96.20;100141.25;109293;1251;66533;-64
2023/10/10 01:57:32;;;;;;;9.70;3.70;;;;;;;4.52;96.27;100148.08;109574;1251;72565;-66
2023/10/10 02:00:26;;;;;;;10.40;3.80;;;;;;;4.54;96.18;100147.98;109434;1251;57511;-65
2023/10/10 02:03:12;;;;;;;9.30;3.90;;;;;;;4.53;96.36;100140.66;109607;1251;58954;-64
2023/10/10 02:05:59;;;;;;;8.80;3.70;;;;;;;4.53;96.35;100145.95;109417;1251;72912;-64
2023/10/10 02:08:46;;;;;;;9.40;4.00;;;;;;;4.51;96.40;100153.41;109519;1251;66596;-65
2023/10/10 02:11:32;;;;;;;11.20;4.20;;;;;;;4.48;96.20;100150.02;109416;1253;72642;-65
2023/10/10 02:14:25;;;;;;;9.60;4.10;;;;;;;4.48;96.54;100146.22;109459;1253;58639;-63
2023/10/10 02:17:22;;;;;;;11.80;4.00;;;;;;;4.47;96.30;100149.23;109379;1253;61375;-64
2023/10/10 02:23:32;;;;;;;9.10;4.10;;;;;;;4.48;96.57;100150.77;109523;1251;66589;-63
2023/10/10 02:26:35;;;;;;;10.90;4.20;;;;;;;4.46;96.25;100149.61;109610;1251;72567;-65
2023/10/10 02:32:13;;;;;;;9.80;4.30;;;;;;;4.40;96.49;100150.63;109453;1251;60295;-65
2023/10/10 02:35:27;;;;;;;11.20;4.50;;;;;;;4.36;96.28;100149.41;109604;1251;72881;-64
2023/10/10 02:38:16;;;;;;;11.00;4.80;;;;;;;4.33;96.57;100146.41;109383;1251;68857;-65
2023/10/10 02:44:58;;;;;;;10.20;4.40;;;;;;;4.30;96.88;100148.67;109575;1251;60289;-65
2023/10/10 02:47:32;;;;;;;10.30;4.40;;;;;;;4.29;97.11;100149.59;109671;1251;60140;-65
2023/10/10 02:53:23;;;;;;;9.50;4.00;;;;;;;4.28;97.28;100140.67;109620;1252;66800;-67
2023/10/10 02:56:18;;;;;;;11.30;4.30;;;;;;;4.28;97.42;100139.83;109521;1254;73725;-66
2023/10/10 02:59:05;;;;;;;9.40;4.30;;;;;;;4.28;98.15;100142.79;109585;1253;57384;-64
2023/10/10 03:04:55;;;;;;;10.20;4.10;;;;;;;4.24;98.20;100138.57;109548;1251;74048;-64
2023/10/10 03:07:42;;;;;;;12.30;4.80;;;;;;;4.24;98.65;100141.42;109516;1252;67756;-64
2023/10/10 03:10:38;;;;;;;10.60;4.20;;;;;;;4.25;99.12;100139.04;109399;1251;71077;-65
2023/10/10 03:13:36;;;;;;;9.30;3.80;;;;;;;4.29;99.60;100138.20;109552;1251;59617;-66
2023/10/10 03:19:26;;;;;;;10.10;3.80;;;;;;;4.37;100.00;100140.59;109426;1253;72818;-65
2023/10/10 03:22:46;;;;;;;9.20;3.50;;;;;;;4.42;99.94;100137.66;109367;1251;66594;-64
2023/10/10 03:25:45;;;;;;;10.00;4.00;;;;;;;4.48;100.00;100142.29;109415;1250;73704;-65
2023/10/10 03:28:41;;;;;;;8.30;3.40;;;;;;;4.55;100.00;100147.74;109350;1254;60446;-64
2023/10/10 03:31:33;;;;;;;9.50;3.50;;;;;;;4.61;100.00;100147.60;109505;1250;61456;-66
2023/10/10 03:34:29;;;;;;;9.10;3.50;;;;;;;4.66;100.00;100143.17;109582;1250;72781;-67
2023/10/10 05:25:23;;;;;;;10.90;4.70;;;;;;;5.77;99.76;100162.48;109181;1256;67604;-63
2023/10/10 05:28:09;;;;;;;13.30;4.50;;;;;;;5.80;99.87;100164.10;109227;1255;73539;-67
2023/10/10 05:31:02;;;;;;;14.20;6.30;;;;;;;5.81;99.99;100160.90;109334;1254;58183;-67
2023/10/10 05:33:50;;;;;;;14.90;6.50;;;;;;;5.80;99.91;100165.68;109264;1254;58712;-65
2023/10/10 05:36:37;;;;;;;13.60;6.30;;;;;;;5.78;99.90;100166.64;109162;1254;73867;-67
2023/10/10 05:39:25;;;;;;;15.10;7.20;;;;;;;5.79;99.82;100165.90;109046;1256;66480;-68
2023/10/10 05:42:20;;;;;;;15.10;6.60;;;;;;;5.81;99.82;100164.23;109509;1251;72717;-67
2023/10/10 05:45:08;;;;;;;14.50;6.70;;;;;;;5.85;99.89;100169.15;109443;1251;58014;-65
2023/10/10 05:47:55;;;;;;;14.40;6.00;;;;;;;5.88;99.99;100166.11;109673;1251;58811;-65
2023/10/10 05:50:42;;;;;;;13.90;5.40;;;;;;;5.93;100.00;100169.04;109426;1251;73072;-68
2023/10/10 05:53:33;;;;;;;12.20;5.20;;;;;;;5.98;99.89;100167.16;109622;1251;67912;-68
2023/10/10 05:56:19;;;;;;;10.40;5.10;;;;;;;6.05;99.65;100169.46;109541;1250;73276;-67
2023/10/10 05:59:08;;;;;;;12.10;5.50;;;;;;;6.12;99.26;100173.97;109495;1251;58084;-66
2023/10/10 06:01:54;;;;;;;10.80;5.40;;;;;;;6.17;99.03;100177.20;109621;1251;59174;-66
2023/10/10 06:04:43;;;;;;;11.10;5.30;;;;;;;6.18;98.60;100172.94;109621;1250;73839;-67
2023/10/10 06:07:32;;;;;;;9.50;4.70;;;;;;;6.26;98.31;100173.70;109621;1254;67650;-67
2023/10/10 06:10:18;;;;;;;11.90;5.00;;;;;;;6.29;98.17;100176.54;109573;1251;72377;-66
2023/10/10 06:13:06;;;;;;;9.70;4.70;;;;;;;6.31;97.86;100173.56;109503;1250;57948;-68
2023/10/10 06:15:52;;;;;;;10.70;5.10;;;;;;;6.32;97.68;100175.83;109593;1251;60351;-66
2023/10/10 06:18:44;;;;;;;13.90;5.20;;;;;;;6.33;97.57;100178.92;109656;1250;73922;-67
2023/10/10 06:21:31;;;;;;;12.90;5.40;;;;;;;6.34;97.39;100181.50;109497;1251;66360;-65
2023/10/10 06:24:17;;;;;;;12.10;5.10;;;;;;;6.38;97.27;100187.65;109590;1251;72527;-66
2023/10/10 06:27:04;;;;;;;12.80;5.50;;;;;;;6.39;97.16;100185.10;109688;1251;57253;-66
2023/10/10 06:29:50;;;;;;;12.00;5.90;;;;;;;6.46;96.75;100192.45;109551;1251;59231;-66
2023/10/10 06:32:38;;;;;;;14.80;6.90;;;;;;;6.54;96.65;100196.42;109597;1251;71581;-69
2023/10/10 06:38:12;;;;;;;14.00;6.30;;;;;;;6.92;96.33;100191.67;109518;1251;71116;-66
2023/10/10 06:40:59;;;;;;;14.50;7.40;;;;;;;7.24;95.61;100188.34;109499;1254;58175;-66
2023/10/10 06:43:48;;;;;;;12.50;6.50;;;;;;;7.63;93.98;100183.80;108795;1253;1002379;-66
2023/10/10 06:46:37;;;;;;;15.00;7.60;;;;;;;8.52;92.68;100181.16;109614;1250;73760;-68
2023/10/10 06:49:23;;;;;;;13.10;6.30;;;;;;;10.25;88.02;100178.35;109691;1250;68469;-66
2023/10/10 06:52:18;;;;;;;13.60;6.20;;;;;;;11.98;80.77;100174.21;109622;1251;72784;-65
2023/10/10 06:55:12;;;;;;;12.00;6.10;;;;;;;13.24;71.95;100173.10;109665;1251;57719;-66
2023/10/10 06:57:59;;;;;;;11.60;5.90;;;;;;;13.63;68.61;100174.55;109640;1251;58787;-66
2023/10/10 07:00:45;;;;;;;11.30;5.20;;;;;;;13.32;67.26;100176.85;109634;1250;72870;-66
2023/10/10 07:03:39;;;;;;;11.60;5.10;;;;;;;12.56;67.45;100182.45;109368;1251;67434;-66
2023/10/10 07:06:28;;;;;;;13.10;5.60;;;;;;;11.86;70.07;100182.14;109523;1251;72418;-66
2023/10/10 07:09:27;;;;;;;14.30;6.40;;;;;;;11.15;71.86;100182.98;109603;1251;57257;-71
2023/10/10 07:12:16;;;;;;;13.10;6.10;;;;;;;10.56;74.30;100182.65;109553;1253;60338;-71
2023/10/10 07:15:06;;;;;;;12.90;5.90;;;;;;;10.16;76.35;100185.79;109613;1250;71595;-67
2023/10/10 07:18:08;;;;;;;12.60;6.10;;;;;;;9.87;77.88;100191.50;109662;1251;66668;-64
2023/10/10 07:24:05;;;;;;;12.20;5.70;;;;;;;9.34;80.42;100203.77;109528;1251;58341;-67
2023/10/10 07:27:05;;;;;;;11.60;5.60;;;;;;;9.17;81.82;100205.30;109473;1251;60085;-66
2023/10/10 07:32:43;;;;;;;15.10;6.20;;;;;;;8.85;83.45;100201.42;109518;1251;68637;-65
2023/10/10 07:35:35;;;;;;;13.40;6.10;;;;;;;8.73;84.67;100203.35;109482;1251;70861;-66
2023/10/10 07:38:28;;;;;;;12.20;5.90;;;;;;;8.62;85.23;100202.98;109587;1251;57924;-66
2023/10/10 07:41:19;;;;;;;11.50;5.50;;;;;;;8.60;85.52;100205.45;109590;1251;60333;-67
2023/10/10 07:44:06;;;;;;;15.30;6.30;;;;;;;8.54;85.89;100208.11;109359;1251;71570;-65
2023/10/10 07:50:00;;;;;;;12.90;5.50;;;;;;;8.52;86.68;100206.14;109542;1251;71381;-66
2023/10/10 07:52:48;;;;;;;11.70;5.50;;;;;;;8.53;86.62;100207.30;109724;1251;57815;-67
2023/10/10 07:55:53;;;;;;;12.20;5.40;;;;;;;8.55;86.51;100203.48;109745;1251;58853;-65
2023/10/10 07:58:49;;;;;;;11.70;5.50;;;;;;;8.57;86.82;100203.92;109695;1251;71087;-64
2023/10/10 08:01:42;;;;;;;14.10;5.70;;;;;;;8.55;87.10;100205.27;109598;1252;67722;-65
2023/10/10 08:04:28;;;;;;;13.40;5.30;;;;;;;8.61;86.74;100202.73;109696;1251;73477;-64
2023/10/10 08:07:18;;;;;;;12.80;5.00;;;;;;;8.67;86.60;100205.34;109562;1251;57668;-64
2023/10/10 08:10:14;;;;;;;10.10;4.60;;;;;;;8.74;86.40;100207.66;109609;1251;58820;-63
2023/10/10 08:13:01;;;;;;;12.00;4.70;;;;;;;8.83;86.62;100207.91;109698;1250;71977;-64
2023/10/10 08:16:01;;;;;;;12.40;4.50;;;;;;;8.89;86.01;100211.08;109668;1255;67602;-63
2023/10/10 08:21:38;;;;;;;9.00;3.80;;;;;;;9.04;85.74;100213.09;109559;1251;58116;-65
2023/10/10 08:24:24;;;;;;;9.30;3.90;;;;;;;9.08;85.09;100211.42;109600;1254;60447;-65
2023/10/10 08:27:12;;;;;;;8.50;4.20;;;;;;;9.10;84.51;100208.58;109592;1251;71498;-67
2023/10/10 08:29:58;;;;;;;9.50;3.90;;;;;;;9.16;84.54;100208.19;109564;1254;67594;-65
2023/10/10 08:32:45;;;;;;;9.30;4.30;;;;;;;9.21;83.86;100204.28;109547;1252;72427;-66
2023/10/10 08:35:38;;;;;;;9.50;4.50;;;;;;;9.31;83.98;100199.17;109548;1251;60470;-65
2023/10/10 08:38:25;;;;;;;9.10;3.60;;;;;;;9.42;82.99;100194.91;109633;1251;60178;-66
2023/10/10 08:41:11;;;;;;;9.00;3.60;;;;;;;9.46;82.56;100194.91;109606;1254;72088;-64
2023/10/10 08:43:58;;;;;;;9.10;3.80;;;;;;;9.52;81.99;100193.64;109398;1254;68854;-67
2023/10/10 08:46:46;;;;;;;8.70;4.30;;;;;;;9.52;81.98;100191.83;109529;1254;72831;-64
2023/10/10 08:49:33;;;;;;;10.30;4.80;;;;;;;9.52;82.02;100191.84;109423;1251;58474;-64
2023/10/10 08:52:22;;;;;;;13.00;5.10;;;;;;;9.52;81.87;100196.97;109475;1251;60371;-64
2023/10/10 08:55:10;;;;;;;11.50;5.20;;;;;;;9.49;82.08;100195.56;109646;1251;72957;-64
2023/10/10 08:57:56;;;;;;;13.80;5.50;;;;;;;9.50;82.13;100199.56;109577;1254;67763;-64
2023/10/10 09:00:43;;;;;;;14.00;5.20;;;;;;;9.54;82.09;100199.50;109634;1251;73682;-64
2023/10/10 09:03:34;;;;;;;11.40;5.00;;;;;;;9.57;82.01;100203.18;109596;1254;60519;-64
2023/10/10 09:06:21;;;;;;;12.10;5.40;;;;;;;9.53;81.54;100205.07;109587;1254;59168;-65
2023/10/10 09:09:32;;;;;;;12.50;5.90;;;;;;;9.55;81.08;100205.27;109609;1254;73560;-64
2023/10/10 09:12:20;;;;;;;13.10;5.00;;;;;;;9.60;81.43;100206.02;109451;1251;67750;-66
2023/10/10 09:15:16;;;;;;;12.90;6.30;;;;;;;9.57;80.59;100208.50;109623;1254;72606;-64
2023/10/10 09:18:14;;;;;;;11.50;5.50;;;;;;;9.60;80.74;100211.98;109604;1252;57913;-64
2023/10/10 09:21:21;;;;;;;10.90;5.40;;;;;;;9.60;80.14;100206.52;109492;1254;60284;-63
2023/10/10 09:24:29;;;;;;;11.00;5.60;;;;;;;9.67;80.25;100209.73;109357;1251;71764;-66
2023/10/10 09:27:28;;;;;;;11.80;5.70;;;;;;;9.68;80.17;100218.33;109512;1251;67969;-64
2023/10/10 09:30:20;;;;;;;11.90;5.70;;;;;;;9.60;79.92;100222.42;109525;1254;73548;-66
2023/10/10 09:36:08;;;;;;;12.00;5.70;;;;;;;9.58;79.67;100219.08;109640;1251;60200;-65
2023/10/10 09:39:26;;;;;;;13.10;5.90;;;;;;;9.58;79.26;100219.83;109627;1251;72686;-64
2023/10/10 09:48:05;;;;;;;12.00;4.30;;;;;;;9.78;79.00;100220.27;109439;1255;57894;-65
2023/10/10 09:51:08;;;;;;;10.00;5.10;;;;;;;9.80;77.82;100212.88;109616;1254;60317;-65
2023/10/10 09:54:07;;;;;;;10.50;5.10;;;;;;;9.82;77.35;100218.44;107956;1251;1015124;-64
2023/10/10 09:56:56;;;;;;;12.10;5.50;;;;;;;9.86;77.14;100214.95;109555;1253;66435;-66
2023/10/10 09:59:42;;;;;;;10.10;5.60;;;;;;;9.91;76.47;100211.17;109567;1251;72631;-64
2023/10/10 10:02:43;;;;;;;10.50;5.70;;;;;;;10.02;76.31;100208.63;109525;1254;57387;-65
2023/10/10 10:05:31;;;;;;;10.80;5.40;;;;;;;10.15;75.53;100204.46;109420;1251;60442;-66
2023/10/10 10:08:23;;;;;;;9.00;4.90;;;;;;;10.27;75.06;100202.73;109455;1251;71561;-68
2023/10/10 10:11:16;;;;;;;11.70;5.00;;;;;;;10.39;75.08;100198.70;109463;1251;67720;-68
2023/10/10 10:14:28;;;;;;;10.80;5.30;;;;;;;10.47;73.48;100199.35;109466;1251;72506;-67
2023/10/10 10:17:48;;;;;;;8.90;4.20;;;;;;;10.48;72.67;100199.45;108020;1251;1003233;-67
2023/10/10 10:20:45;;;;;;;9.70;4.50;;;;;;;10.41;72.02;100199.44;109585;1251;58993;-65
2023/10/10 10:23:45;;;;;;;10.40;5.00;;;;;;;10.36;71.82;100201.59;109605;1252;73864;-69
2023/10/10 10:26:44;;;;;;;10.70;4.50;;;;;;;10.37;71.88;100198.08;109573;1253;66660;-66
2023/10/10 10:29:36;;;;;;;9.80;4.40;;;;;;;10.37;71.48;100198.51;109314;1253;71410;-65
2023/10/10 10:32:24;;;;;;;11.80;4.70;;;;;;;10.31;70.75;100197.33;109546;1251;58850;-66
2023/10/10 10:35:15;;;;;;;10.30;5.30;;;;;;;10.33;71.31;100200.91;109491;1251;60243;-67
2023/10/10 10:38:06;;;;;;;9.10;4.30;;;;;;;10.32;70.47;100201.14;109299;1253;71150;-67
2023/10/10 10:41:04;;;;;;;8.90;4.10;;;;;;;10.32;70.79;100197.05;109486;1253;66381;-67
2023/10/10 10:43:51;;;;;;;10.60;4.10;;;;;;;10.39;70.95;100197.98;109382;1251;209146;-65
2023/10/10 10:46:40;;;;;;;10.20;4.00;;;;;;;10.44;70.34;100195.27;109245;1251;60587;-67
2023/10/10 10:49:28;;;;;;;10.00;4.50;;;;;;;10.48;70.11;100192.85;109522;1253;58826;-69
2023/10/10 10:52:44;;;;;;;12.00;6.00;;;;;;;10.54;70.14;100190.98;109531;1251;73061;-63
2023/10/10 10:55:39;;;;;;;10.80;4.60;;;;;;;10.63;69.98;100188.51;109637;1251;66362;-66
2023/10/10 10:58:29;;;;;;;8.60;3.90;;;;;;;10.68;69.69;100186.20;109452;1251;72535;-67
2023/10/10 11:01:20;;;;;;;10.00;4.40;;;;;;;10.70;69.20;100181.95;109277;1251;57586;-67
2023/10/10 11:04:16;;;;;;;10.30;4.30;;;;;;;10.65;68.64;100182.20;109449;1251;57958;-65
2023/10/10 11:07:08;;;;;;;9.10;3.80;;;;;;;10.66;69.06;100184.79;109527;1251;71952;-68
2023/10/10 11:10:06;;;;;;;9.40;3.40;;;;;;;10.72;69.06;100182.00;109620;1251;66825;-65
2023/10/10 11:12:53;;;;;;;10.70;3.90;;;;;;;10.75;68.70;100172.41;109483;1253;71779;-68
2023/10/10 11:15:39;;;;;;;12.50;4.70;;;;;;;10.78;68.86;100182.27;109506;1251;58805;-65
2023/10/10 11:18:34;;;;;;;9.40;4.00;;;;;;;10.83;68.84;100187.42;109591;1251;58681;-68
2023/10/10 11:21:27;;;;;;;10.80;4.70;;;;;;;10.81;68.42;100185.10;109625;1251;72289;-67
2023/10/10 11:24:15;;;;;;;10.40;4.20;;;;;;;10.83;68.90;100188.42;109603;1251;66261;-66
2023/10/10 11:27:14;;;;;;;10.30;4.00;;;;;;;10.89;68.24;100184.93;109645;1251;73486;-66
2023/10/10 11:30:08;;;;;;;10.90;4.30;;;;;;;10.88;67.79;100182.41;109584;1251;57477;-67
2023/10/10 11:33:16;;;;;;;9.60;4.20;;;;;;;10.88;67.91;100178.82;109484;1251;59020;-66
2023/10/10 11:36:28;;;;;;;9.80;3.70;;;;;;;10.96;68.01;100172.40;109436;1251;72871;-67
2023/10/10 11:39:31;;;;;;;9.00;3.90;;;;;;;11.02;67.60;100177.77;109553;1251;68670;-68
2023/10/10 11:42:30;;;;;;;10.10;4.30;;;;;;;11.04;67.38;100180.99;109530;1251;71540;-65
2023/10/10 11:45:25;;;;;;;9.30;3.80;;;;;;;11.11;67.37;100185.04;109438;1253;57342;-67
2023/10/10 11:48:13;;;;;;;8.50;3.70;;;;;;;11.12;67.04;100185.35;109511;1253;58801;-67
2023/10/10 11:51:00;;;;;;;8.30;3.50;;;;;;;11.11;66.91;100186.08;109474;1253;71703;-68
2023/10/10 11:53:47;;;;;;;8.10;3.80;;;;;;;11.16;66.75;100184.97;109649;1251;66634;-66
2023/10/10 11:56:37;;;;;;;8.70;3.40;;;;;;;11.21;66.59;100177.01;109422;1251;72666;-67
2023/10/10 11:59:23;;;;;;;9.30;3.80;;;;;;;11.17;65.94;100168.44;109443;1251;57789;-66
2023/10/10 12:02:16;;;;;;;7.50;3.20;;;;;;;11.23;66.03;100163.52;109610;1251;60227;-65
2023/10/10 12:05:14;;;;;;;8.30;3.40;;;;;;;11.26;65.46;100164.73;109557;1251;72902;-68
2023/10/10 12:08:06;;;;;;;7.60;2.70;;;;;;;11.28;64.81;100168.44;109599;1251;66540;-68
2023/10/10 12:11:12;;;;;;;8.70;3.60;;;;;;;11.30;64.76;100168.81;109525;1251;72693;-66
2023/10/10 12:13:59;;;;;;;9.40;3.80;;;;;;;11.36;64.80;100168.73;109485;1251;57949;-67
2023/10/10 12:16:50;;;;;;;8.10;3.30;;;;;;;11.47;65.02;100172.32;109581;1251;58999;-67
2023/10/10 12:19:36;;;;;;;8.70;3.00;;;;;;;11.54;64.53;100180.63;109539;1251;72750;-67
2023/10/10 12:22:23;;;;;;;9.50;3.20;;;;;;;11.58;64.12;100178.91;109555;1251;67704;-65
2023/10/10 12:25:15;;;;;;;8.50;3.40;;;;;;;11.64;64.47;100174.54;109625;1251;72736;-67
2023/10/10 12:28:03;;;;;;;7.70;3.00;;;;;;;11.71;63.79;100173.23;109535;1251;57308;-68
2023/10/10 12:30:49;;;;;;;7.50;2.90;;;;;;;11.76;64.13;100174.95;109512;1251;61209;-66
2023/10/10 12:33:36;;;;;;;7.90;3.00;;;;;;;11.82;63.79;100175.55;109628;1251;72743;-69
2023/10/10 12:36:28;;;;;;;8.40;3.50;;;;;;;11.97;63.80;100175.77;109420;1251;67571;-68
2023/10/10 12:39:15;;;;;;;7.20;2.80;;;;;;;12.13;63.47;100165.06;108657;1251;1002180;-65
2023/10/10 12:42:01;;;;;;;8.20;3.50;;;;;;;12.30;63.34;100162.95;109489;1254;57427;-67
2023/10/10 12:44:48;;;;;;;8.70;3.40;;;;;;;12.38;61.89;100157.99;109529;1251;59976;-65
2023/10/10 12:47:35;;;;;;;8.00;3.40;;;;;;;12.37;61.40;100166.10;109550;1251;71771;-71
2023/10/10 12:50:29;;;;;;;9.40;3.50;;;;;;;12.33;61.59;100159.50;109318;1251;67014;-66
2023/10/10 12:53:19;;;;;;;9.50;3.50;;;;;;;12.26;61.68;100156.14;109406;1251;72728;-67
2023/10/10 12:56:11;;;;;;;8.80;3.10;;;;;;;12.17;61.61;100144.81;109500;1251;57556;-66
2023/10/10 12:59:03;;;;;;;8.80;3.30;;;;;;;12.15;61.94;100148.16;109555;1251;58667;-67
2023/10/10 13:02:15;;;;;;;9.30;3.00;;;;;;;12.15;61.76;100151.20;109619;1251;71343;-67
2023/10/10 13:05:07;;;;;;;9.10;3.10;;;;;;;12.04;60.69;100152.05;109675;1251;66390;-66
2023/10/10 13:07:58;;;;;;;8.30;3.40;;;;;;;12.00;61.65;100148.68;109717;1250;72755;-67
2023/10/10 13:10:45;;;;;;;8.00;3.30;;;;;;;11.98;61.59;100140.69;109501;1254;58050;-67
2023/10/10 13:13:45;;;;;;;8.10;3.10;;;;;;;11.92;61.79;100133.06;109592;1251;58232;-66
2023/10/10 13:19:23;;;;;;;10.10;3.80;;;;;;;11.84;61.88;100123.98;109525;1251;66664;-68
2023/10/10 13:22:20;;;;;;;8.80;3.70;;;;;;;11.74;62.24;100117.36;109537;1250;72596;-66
2023/10/10 13:25:10;;;;;;;8.30;3.80;;;;;;;11.67;62.87;100114.50;109620;1250;58735;-66
2023/10/10 13:27:56;;;;;;;9.10;3.70;;;;;;;11.65;63.55;100107.23;109544;1251;60094;-67
2023/10/10 13:30:47;;;;;;;8.60;4.20;;;;;;;11.62;63.83;100096.97;109615;1250;72946;-66
2023/10/10 13:33:33;;;;;;;9.10;4.00;;;;;;;11.50;63.92;100097.94;109667;1250;66840;-67
2023/10/10 13:36:20;;;;;;;10.40;4.20;;;;;;;11.46;64.21;100105.89;109502;1251;71475;-69
2023/10/10 13:39:07;;;;;;;8.30;3.80;;;;;;;11.49;64.60;100105.89;109586;1250;57237;-67
2023/10/10 13:41:55;;;;;;;10.20;4.40;;;;;;;11.52;64.86;100100.29;109673;1250;60276;-66
2023/10/10 13:44:44;;;;;;;9.10;4.10;;;;;;;11.57;64.70;100095.98;109562;1251;73962;-67
2023/10/10 13:47:30;;;;;;;9.10;4.20;;;;;;;11.49;64.18;100084.73;109638;1250;67717;-68
2023/10/10 13:50:31;;;;;;;10.50;3.80;;;;;;;11.50;64.61;100086.76;109665;1250;72512;-68
2023/10/10 13:53:20;;;;;;;11.30;4.60;;;;;;;11.47;64.91;100093.77;109629;1250;57330;-66
2023/10/10 13:56:07;;;;;;;9.60;4.40;;;;;;;11.47;65.24;100091.07;109653;1250;60077;-69
2023/10/10 13:58:56;;;;;;;10.30;5.10;;;;;;;11.48;65.80;100084.77;109658;1250;72801;-69
2023/10/10 14:01:42;;;;;;;12.60;4.80;;;;;;;11.46;65.83;100063.80;109713;1250;66244;-66
2023/10/10 14:04:45;;;;;;;12.60;4.70;;;;;;;11.48;65.66;100062.77;109625;1251;71026;-68
2023/10/10 14:07:32;;;;;;;10.90;4.80;;;;;;;11.54;65.79;100060.11;109550;1251;57673;-67
2023/10/10 14:10:20;;;;;;;10.80;5.60;;;;;;;11.61;65.37;100057.13;109563;1251;58277;-73
2023/10/10 14:13:19;;;;;;;10.60;6.20;;;;;;;11.62;65.27;100061.64;109530;1250;73862;-67
2023/10/10 14:16:06;;;;;;;12.40;6.90;;;;;;;11.67;65.45;100069.04;109554;1251;67607;-66
2023/10/10 14:18:53;;;;;;;12.90;6.20;;;;;;;11.63;65.64;100060.86;109437;1250;73043;-67
2023/10/10 14:21:40;;;;;;;14.20;6.80;;;;;;;11.66;65.70;100068.05;109517;1250;57724;-67
2023/10/10 14:24:30;;;;;;;11.40;5.90;;;;;;;11.70;65.53;100064.36;109252;1250;60069;-71
2023/10/10 14:27:18;;;;;;;12.50;5.60;;;;;;;11.71;65.10;100058.74;109607;1250;71990;-69
2023/10/10 14:30:20;;;;;;;9.90;5.70;;;;;;;11.63;64.16;100056.77;109631;1251;66592;-67
2023/10/10 14:33:08;;;;;;;12.00;5.80;;;;;;;11.46;64.34;100051.40;109422;1251;71515;-69
2023/10/10 14:35:55;;;;;;;13.20;5.60;;;;;;;11.34;64.80;100044.88;109318;1251;57965;-65
2023/10/10 14:38:44;;;;;;;10.70;5.50;;;;;;;11.25;65.37;100040.77;109631;1251;58837;-65
2023/10/10 14:41:31;;;;;;;13.70;6.70;;;;;;;11.18;65.97;100050.28;109721;1250;73010;-68
2023/10/10 14:44:18;;;;;;;12.70;6.10;;;;;;;11.14;66.39;100060.85;109633;1250;68721;-68
2023/10/10 14:47:04;;;;;;;11.10;5.50;;;;;;;11.07;66.33;100056.14;109368;1251;71287;-68
2023/10/10 14:49:56;;;;;;;13.20;5.80;;;;;;;10.97;66.34;100052.96;109557;1251;57282;-68
2023/10/10 14:52:48;;;;;;;15.10;5.20;;;;;;;10.86;66.56;100047.29;109479;1250;60714;-69
2023/10/10 14:55:44;;;;;;;12.80;5.50;;;;;;;10.73;66.37;100038.41;109533;1250;72979;-68
2023/10/10 14:58:31;;;;;;;13.80;6.00;;;;;;;10.62;66.43;100048.45;109729;1250;68725;-70
2023/10/10 15:01:20;;;;;;;14.00;5.40;;;;;;;10.55;66.63;100047.56;108164;1250;1003090;-65
2023/10/10 15:04:08;;;;;;;16.30;5.90;;;;;;;10.46;67.30;100046.30;109622;1251;57326;-67
2023/10/10 15:06:56;;;;;;;17.10;5.90;;;;;;;10.38;68.00;100043.73;109744;1250;60077;-67
2023/10/10 15:09:42;;;;;;;14.10;5.80;;;;;;;10.27;68.40;100040.48;109689;1250;72010;-65
2023/10/10 15:12:28;;;;;;;12.00;5.60;;;;;;;10.16;68.87;100048.25;109756;1250;67214;-66
2023/10/10 15:15:16;;;;;;;14.10;5.50;;;;;;;10.05;69.53;100057.77;109685;1250;72090;-68
2023/10/10 15:18:03;;;;;;;11.10;5.70;;;;;;;9.93;69.76;100047.34;109571;1250;57412;-64
2023/10/10 15:20:50;;;;;;;12.00;5.90;;;;;;;9.82;70.69;100042.80;109524;1251;60511;-66
2023/10/10 15:23:37;;;;;;;13.20;6.00;;;;;;;9.73;71.08;100043.46;109610;1251;70729;-65
2023/10/10 15:26:23;;;;;;;11.60;5.20;;;;;;;9.63;71.77;100033.98;109591;1251;67838;-66
2023/10/10 15:29:10;;;;;;;15.60;6.00;;;;;;;9.54;72.17;100032.10;109625;1250;71398;-68
2023/10/10 15:32:00;;;;;;;13.00;6.30;;;;;;;9.47;72.58;100027.88;109578;1251;57710;-67
2023/10/10 15:34:46;;;;;;;16.60;7.20;;;;;;;9.41;72.83;100019.63;109652;1250;58678;-65
2023/10/10 15:37:33;;;;;;;15.40;6.90;;;;;;;9.35;73.19;100039.86;109627;1250;73251;-67
2023/10/10 15:40:22;;;;;;;15.10;7.00;;;;;;;9.31;73.99;100032.24;109625;1251;67852;-65